Terminal Aerodrome Forecast
Issued by NWS Sterling, VA

Current Version | Previous Version | Graphics & Text | Print | Product List | Glossary On
Versions: 1 2 3 4 5 6 7 8 9 10 11 12 13 14 15 16 17 18 19 20 21 22 23 24 25 26
000
FTUS41 KLWX 272053 AAA
TAFDCA
TAF AMD
KDCA 272053Z 2721/2818 33005KT P6SM BKN045 BKN080 OVC130
     FM280300 34009KT P6SM BKN110
     FM281400 32013KT P6SM BKN060=

USA.gov is the U.S. government's official web portal to all federal, state and local government web resources and services.